Time;durP1;ratioP1;P1;durP2;ratioP2;P2;SDS_P1;SDS_P2;PMS_P1;PMS_P2;Temp;Humidity;BMP_temperature;BMP_pressure;BME280_temperature;BME280_humidity;BME280_pressure;Samples;Min_cycle;Max_cycle;Signal;HPM_P1;HPM_P2
2024/01/21 00:02:21;;;;;;;31.60;13.32;;;;;;;-7.72;100.00;101060.81;12205064;19;20011;-80
2024/01/21 00:06:25;;;;;;;36.03;15.13;;;;;;;-7.72;100.00;101066.19;12187914;19;20030;-82
2024/01/21 00:10:31;;;;;;;29.50;14.23;;;;;;;-7.83;100.00;101069.56;12208456;19;20011;-82
2024/01/21 00:14:36;;;;;;;34.42;12.98;;;;;;;-7.89;100.00;101073.50;12206453;19;20018;-81
2024/01/21 00:18:38;;;;;;;36.22;15.10;;;;;;;-7.99;100.00;101071.53;12182668;19;20043;-82
2024/01/21 00:22:43;;;;;;;27.45;10.88;;;;;;;-8.00;100.00;101062.66;12214084;19;20018;-84
2024/01/21 00:26:52;;;;;;;30.55;13.50;;;;;;;-8.00;100.00;101046.59;12224152;19;20205;-80
2024/01/21 00:30:53;;;;;;;28.23;11.70;;;;;;;-7.95;100.00;101033.75;12196051;19;20006;-80
2024/01/21 00:34:56;;;;;;;19.95;11.93;;;;;;;-7.95;100.00;101022.22;12216927;19;20010;-78
2024/01/21 00:38:57;;;;;;;29.15;12.07;;;;;;;-7.99;100.00;101010.00;12235328;19;20111;-81
2024/01/21 00:42:59;;;;;;;34.58;13.65;;;;;;;-8.06;100.00;101001.50;12205901;19;20018;-82
2024/01/21 00:47:05;;;;;;;26.38;11.98;;;;;;;-8.12;100.00;101007.25;12204383;19;20007;-80
2024/01/21 00:51:08;;;;;;;29.38;12.27;;;;;;;-8.19;100.00;101030.88;12216336;19;20344;-81
2024/01/21 00:55:10;;;;;;;50.35;16.92;;;;;;;-8.24;100.00;101032.97;12180916;19;20022;-85
2024/01/21 00:59:12;;;;;;;38.63;12.40;;;;;;;-8.12;100.00;101042.03;12203706;19;20576;-81
2024/01/21 01:03:14;;;;;;;23.75;10.93;;;;;;;-7.94;100.00;101053.34;12203762;19;20014;-83
2024/01/21 01:07:20;;;;;;;37.35;12.63;;;;;;;-7.80;100.00;101046.13;12182185;19;20010;-83
2024/01/21 01:11:22;;;;;;;48.28;15.15;;;;;;;-7.63;100.00;101046.84;12210993;19;20014;-82
2024/01/21 01:15:26;;;;;;;37.40;14.32;;;;;;;-7.47;100.00;101066.25;12189866;19;20054;-84
2024/01/21 01:19:52;;;;;;;47.67;13.90;;;;;;;-7.34;100.00;101074.31;12237952;19;20521;-82
2024/01/21 01:23:54;;;;;;;40.38;13.95;;;;;;;-7.21;100.00;101060.94;12233318;19;20794;-81
2024/01/21 01:27:57;;;;;;;38.85;14.98;;;;;;;-7.02;100.00;101050.69;12189726;19;20049;-81
2024/01/21 01:31:59;;;;;;;43.17;15.27;;;;;;;-6.88;100.00;101050.56;12202508;19;20682;-81
2024/01/21 01:36:02;;;;;;;42.65;13.23;;;;;;;-6.82;100.00;101057.31;12203108;19;20039;-81
2024/01/21 01:40:06;;;;;;;49.80;15.43;;;;;;;-6.73;100.00;101051.31;12178168;19;20011;-81
2024/01/21 01:44:10;;;;;;;46.65;15.05;;;;;;;-6.63;100.00;101040.81;12201881;19;20102;-81
2024/01/21 01:48:13;;;;;;;40.17;14.10;;;;;;;-6.57;100.00;101040.38;12208198;19;20011;-80
2024/01/21 01:52:18;;;;;;;41.33;16.05;;;;;;;-6.51;100.00;101036.41;12189973;19;20033;-81
2024/01/21 01:56:24;;;;;;;50.53;16.33;;;;;;;-6.46;100.00;101020.81;12223575;19;20018;-83
2024/01/21 02:00:28;;;;;;;43.63;15.85;;;;;;;-6.41;100.00;101018.66;12193747;19;20388;-83
2024/01/21 02:04:30;;;;;;;45.65;15.07;;;;;;;-6.49;100.00;101010.31;12214105;19;20006;-83
2024/01/21 02:08:32;;;;;;;64.40;15.93;;;;;;;-6.61;100.00;101020.09;12212511;19;20003;-83
2024/01/21 02:12:40;;;;;;;64.13;15.52;;;;;;;-6.64;100.00;101006.91;12190453;19;20006;-84
2024/01/21 02:16:42;;;;;;;48.63;14.95;;;;;;;-6.66;100.00;100995.47;12215591;19;19999;-81
2024/01/21 02:20:44;;;;;;;63.03;14.90;;;;;;;-6.63;100.00;101005.97;12213662;19;20445;-82
2024/01/21 02:24:45;;;;;;;39.28;13.52;;;;;;;-6.73;100.00;101003.06;12195500;19;20167;-83
2024/01/21 02:28:49;;;;;;;52.85;12.40;;;;;;;-6.70;100.00;101005.50;12218028;19;20125;-82
2024/01/21 02:32:51;;;;;;;38.55;12.27;;;;;;;-6.75;100.00;101002.34;12261518;19;20011;-82
2024/01/21 02:36:54;;;;;;;37.95;11.90;;;;;;;-6.75;100.00;100993.41;12247457;19;20015;-83
2024/01/21 02:40:57;;;;;;;40.95;11.68;;;;;;;-6.66;100.00;100987.41;12247542;19;20010;-82
2024/01/21 02:44:59;;;;;;;35.60;12.43;;;;;;;-6.59;100.00;100977.94;12211941;19;20018;-82
2024/01/21 02:49:00;;;;;;;33.25;14.40;;;;;;;-6.54;100.00;100974.94;12188519;19;20006;-82
2024/01/21 02:53:03;;;;;;;38.25;12.65;;;;;;;-6.50;100.00;100976.44;12209225;19;20086;-82
2024/01/21 02:57:05;;;;;;;85.78;14.20;;;;;;;-6.48;100.00;100971.81;12211192;19;20073;-82
2024/01/21 03:01:09;;;;;;;38.20;12.82;;;;;;;-6.46;100.00;100967.19;12184249;19;20007;-83
2024/01/21 03:05:11;;;;;;;39.60;12.38;;;;;;;-6.42;100.00;100969.53;12206485;19;20010;-82
2024/01/21 03:09:14;;;;;;;42.40;12.85;;;;;;;-6.44;100.00;100974.16;12210251;19;20054;-82
2024/01/21 03:13:22;;;;;;;51.35;13.25;;;;;;;-6.40;100.00;100957.84;12189736;19;21754;-83
2024/01/21 03:17:25;;;;;;;;;;;;;;;-6.37;100.00;100954.91;12233992;19;20013;-83
2024/01/21 03:21:27;;;;;;;44.95;13.32;;;;;;;-6.39;100.00;100951.50;12196544;19;19935;-82
2024/01/21 03:25:31;;;;;;;43.58;13.10;;;;;;;-6.29;100.00;100942.66;12214808;19;20009;-83
2024/01/21 03:29:34;;;;;;;41.45;11.43;;;;;;;-6.24;100.00;100934.28;12205440;19;20023;-83
2024/01/21 03:33:38;;;;;;;54.60;13.35;;;;;;;-6.22;100.00;100937.69;12184851;19;20046;-82
2024/01/21 03:37:40;;;;;;;59.90;11.77;;;;;;;-6.24;100.00;100936.97;12186474;19;20533;-82
2024/01/21 03:41:45;;;;;;;33.33;11.38;;;;;;;-6.28;100.00;100932.78;12204058;19;20010;-83
2024/01/21 03:45:47;;;;;;;64.20;12.68;;;;;;;-6.25;100.00;100943.28;12188008;19;20014;-82
2024/01/21 03:49:51;;;;;;;51.65;12.32;;;;;;;-6.16;100.00;100931.84;12205162;19;20006;-82
2024/01/21 03:53:53;;;;;;;50.28;13.80;;;;;;;-6.03;100.00;100927.31;12197424;19;20010;-81
2024/01/21 03:57:55;;;;;;;47.05;13.45;;;;;;;-5.98;100.00;100927.81;12187988;19;20009;-82
2024/01/21 04:02:01;;;;;;;41.47;11.25;;;;;;;-5.87;100.00;100918.91;12212043;19;20350;-82
2024/01/21 04:06:05;;;;;;;50.70;14.10;;;;;;;-5.88;100.00;100910.97;12210303;19;20059;-83
2024/01/21 04:10:12;;;;;;;40.88;13.88;;;;;;;-5.90;100.00;100918.28;12178320;19;20118;-82
2024/01/21 04:14:14;;;;;;;49.20;12.07;;;;;;;-5.85;100.00;100914.28;12202243;19;20014;-82
2024/01/21 04:18:18;;;;;;;52.17;12.25;;;;;;;-5.75;100.00;100922.47;12206836;19;20073;-83
2024/01/21 04:22:21;;;;;;;43.92;12.05;;;;;;;-5.76;100.00;100923.47;12182826;19;20364;-83
2024/01/21 04:26:25;;;;;;;53.03;13.52;;;;;;;-5.76;100.00;100929.69;12206185;19;20041;-83
2024/01/21 04:30:28;;;;;;;45.70;10.43;;;;;;;-5.81;100.00;100936.38;12176638;19;20017;-82
2024/01/21 04:34:30;;;;;;;;;;;;;;;-5.78;100.00;100930.75;12197539;19;20029;-82
2024/01/21 04:38:32;;;;;;;29.80;11.53;;;;;;;-5.70;100.00;100949.84;12175474;19;20321;-82
2024/01/21 04:42:37;;;;;;;45.92;12.80;;;;;;;-5.66;100.00;100956.66;12181970;19;20038;-82
2024/01/21 04:46:38;;;;;;;48.10;13.23;;;;;;;-5.68;100.00;100968.50;12204812;19;20018;-82
2024/01/21 04:50:40;;;;;;;50.95;14.10;;;;;;;-5.73;100.00;100972.41;12203574;19;20022;-83
2024/01/21 04:54:42;;;;;;;44.20;12.85;;;;;;;-5.77;100.00;100967.38;12183304;19;20490;-82
2024/01/21 04:58:46;;;;;;;46.22;13.65;;;;;;;-5.83;100.00;100973.19;12200877;19;20030;-82
2024/01/21 05:02:48;;;;;;;51.50;14.85;;;;;;;-5.80;100.00;100981.03;12199164;19;20768;-81
2024/01/21 05:06:52;;;;;;;43.95;12.63;;;;;;;-5.76;100.00;100977.16;12175386;19;20014;-82
2024/01/21 05:10:55;;;;;;;41.25;13.13;;;;;;;-5.78;100.00;100984.47;12203114;19;20010;-82
2024/01/21 05:15:03;;;;;;;47.22;14.65;;;;;;;-5.73;100.00;100974.25;12203711;19;20043;-82
2024/01/21 05:19:10;;;;;;;53.55;13.18;;;;;;;-5.69;100.00;100966.78;12177745;19;20007;-82
2024/01/21 05:23:12;;;;;;;48.20;14.00;;;;;;;-5.71;100.00;100964.25;12199754;19;20010;-82
2024/01/21 05:27:14;;;;;;;;;;;;;;;-5.75;100.00;100933.22;12209578;19;20081;-82
2024/01/21 05:31:16;;;;;;;45.47;12.45;;;;;;;-5.74;100.00;100902.69;12190200;19;19911;-82
2024/01/21 05:35:22;;;;;;;36.53;12.05;;;;;;;-5.76;100.00;100872.44;12209583;19;20002;-82
2024/01/21 05:39:25;;;;;;;44.22;12.48;;;;;;;-5.92;100.00;100880.81;12215565;19;20010;-82
2024/01/21 05:43:26;;;;;;;45.03;11.68;;;;;;;-6.17;100.00;100903.34;12198114;19;20465;-83
2024/01/21 05:47:29;;;;;;;39.90;11.65;;;;;;;-6.33;100.00;100909.00;12221434;19;20009;-82
2024/01/21 05:51:31;;;;;;;34.28;10.82;;;;;;;-6.43;100.00;100902.59;12227578;19;20015;-83
2024/01/21 05:55:33;;;;;;;41.42;10.75;;;;;;;-6.42;100.00;100921.25;12206790;19;20017;-82
2024/01/21 05:59:35;;;;;;;41.38;13.02;;;;;;;-6.41;100.00;100922.13;12229190;19;20014;-81
2024/01/21 06:03:36;;;;;;;37.88;12.20;;;;;;;-6.36;100.00;100921.78;12211790;19;20785;-83
2024/01/21 06:07:39;;;;;;;36.25;11.07;;;;;;;-6.32;100.00;100909.84;12223163;19;20046;-82
2024/01/21 06:11:44;;;;;;;39.92;10.70;;;;;;;-6.31;100.00;100904.34;12226605;19;20003;-82
2024/01/21 06:15:46;;;;;;;33.85;10.70;;;;;;;-6.37;100.00;100901.28;12191948;19;20003;-84
2024/01/21 06:19:49;;;;;;;31.45;12.52;;;;;;;-6.39;100.00;100896.06;12216903;19;20015;-83
2024/01/21 06:23:51;;;;;;;39.83;12.27;;;;;;;-6.45;100.00;100910.75;12215377;19;20122;-84
2024/01/21 06:27:53;;;;;;;40.65;11.43;;;;;;;-6.42;100.00;100913.22;12194037;19;20043;-83
2024/01/21 06:31:56;;;;;;;47.85;12.73;;;;;;;-6.43;100.00;100905.28;12216896;19;20019;-84
2024/01/21 06:35:58;;;;;;;57.90;12.18;;;;;;;-6.48;100.00;100902.09;12212749;19;20031;-84
2024/01/21 06:40:00;;;;;;;41.63;11.73;;;;;;;-6.48;100.00;100899.41;12190659;19;20038;-84
2024/01/21 06:44:07;;;;;;;35.67;11.70;;;;;;;-6.37;100.00;100899.44;12215278;19;20026;-83
2024/01/21 06:48:09;;;;;;;34.15;11.20;;;;;;;-6.30;100.00;100905.25;12218082;19;20007;-83
2024/01/21 06:52:13;;;;;;;38.80;12.15;;;;;;;-6.25;100.00;100905.72;12197083;19;20019;-84
2024/01/21 06:56:16;;;;;;;35.70;12.27;;;;;;;-6.24;100.00;100918.19;12215631;19;20366;-83
2024/01/21 07:00:20;;;;;;;44.75;12.57;;;;;;;-6.32;100.00;100913.38;12212209;19;20134;-83
2024/01/21 07:04:22;;;;;;;44.97;12.48;;;;;;;-6.31;100.00;100904.34;12190318;19;20003;-84
2024/01/21 07:08:25;;;;;;;44.33;13.23;;;;;;;-6.25;100.00;100908.41;12239281;19;20014;-82
2024/01/21 07:12:26;;;;;;;44.85;12.95;;;;;;;-6.26;100.00;100890.63;12228668;19;20007;-83
2024/01/21 07:16:28;;;;;;;50.28;14.18;;;;;;;-6.18;100.00;100908.81;12192634;19;20375;-83
2024/01/21 07:20:30;;;;;;;39.80;13.50;;;;;;;-6.11;100.00;100907.38;12212954;19;20018;-83
2024/01/21 07:24:32;;;;;;;31.02;10.38;;;;;;;-6.06;100.00;100906.06;12213733;19;20018;-83
2024/01/21 07:28:34;;;;;;;38.17;12.90;;;;;;;-6.06;100.00;100902.53;12184071;19;20123;-82
2024/01/21 07:32:39;;;;;;;35.47;12.82;;;;;;;-5.98;100.00;100924.25;12218189;19;20010;-82
2024/01/21 07:36:42;;;;;;;43.05;12.60;;;;;;;-6.00;100.00;100931.59;12191611;19;20339;-83
2024/01/21 07:40:45;;;;;;;38.92;13.65;;;;;;;-5.99;100.00;100922.56;12231557;19;20058;-82
2024/01/21 07:44:50;;;;;;;44.13;13.07;;;;;;;-5.97;100.00;100916.09;12260219;19;20003;-81
2024/01/21 07:48:53;;;;;;;43.67;13.68;;;;;;;-6.04;100.00;100909.50;12239207;19;20016;-82
2024/01/21 07:52:54;;;;;;;40.42;13.35;;;;;;;-6.04;100.00;100920.22;12269384;19;20096;-81
2024/01/21 07:56:57;;;;;;;38.92;14.02;;;;;;;-5.93;100.00;100923.91;12231520;19;20026;-81
2024/01/21 08:01:00;;;;;;;32.72;14.35;;;;;;;-5.83;100.00;100911.47;12192971;19;20019;-82
2024/01/21 08:05:02;;;;;;;38.17;13.10;;;;;;;-5.73;100.00;100915.16;12211453;19;20476;-81
2024/01/21 08:09:05;;;;;;;40.38;14.05;;;;;;;-5.69;100.00;100905.91;12207971;19;20081;-81
2024/01/21 08:13:08;;;;;;;41.65;13.00;;;;;;;-5.62;100.00;100914.31;12185471;19;20620;-82
2024/01/21 08:17:10;;;;;;;39.13;13.60;;;;;;;-5.47;100.00;100912.28;12211248;19;20007;-82
2024/01/21 08:21:13;;;;;;;40.60;13.95;;;;;;;-5.35;100.00;100908.66;12211341;19;20019;-85
2024/01/21 08:25:15;;;;;;;36.20;13.75;;;;;;;-5.31;100.00;100921.72;12198623;19;20003;-82
2024/01/21 08:29:18;;;;;;;36.08;13.23;;;;;;;-5.27;100.00;100935.75;12222338;19;20656;-82
2024/01/21 08:33:19;;;;;;;29.35;11.77;;;;;;;-5.25;100.00;100936.50;12207313;19;20010;-82
2024/01/21 08:37:21;;;;;;;36.28;13.68;;;;;;;-5.24;100.00;100940.03;12167956;19;20014;-82
2024/01/21 08:41:24;;;;;;;34.97;13.82;;;;;;;-5.14;100.00;100949.94;12227671;19;20033;-84
2024/01/21 08:45:25;;;;;;;40.50;14.15;;;;;;;-5.02;100.00;100955.34;12220169;19;20003;-84
2024/01/21 08:49:28;;;;;;;33.30;11.90;;;;;;;-5.06;100.00;100970.84;12206971;19;20007;-83
2024/01/21 08:53:30;;;;;;;42.15;15.13;;;;;;;-4.85;100.00;100968.28;12246256;19;20002;-82
2024/01/21 08:57:32;;;;;;;35.45;12.48;;;;;;;-4.57;100.00;100961.56;12245191;19;20014;-83
2024/01/21 09:01:39;;;;;;;39.65;13.90;;;;;;;-4.52;100.00;100959.34;12185225;19;20006;-83
2024/01/21 09:05:44;;;;;;;40.22;13.77;;;;;;;-4.46;100.00;100937.34;12201804;19;20021;-83
2024/01/21 09:29:12;;;;;;;38.63;14.73;;;;;;;-3.70;100.00;100962.38;12204812;19;20010;-84
2024/01/21 09:43:30;;;;;;;37.00;14.35;;;;;;;-3.37;100.00;100941.63;12211180;19;20006;-82
2024/01/21 09:48:32;;;;;;;39.53;15.68;;;;;;;-3.18;100.00;100956.22;12239456;19;20571;-81
2024/01/21 09:52:51;;;;;;;32.40;13.93;;;;;;;-2.88;100.00;100952.72;12216680;19;20018;-78
2024/01/21 09:56:54;;;;;;;36.70;14.40;;;;;;;-2.73;100.00;100966.69;12243888;19;20003;-82
2024/01/21 10:00:56;;;;;;;40.25;14.85;;;;;;;-2.53;100.00;101001.72;12243905;19;20005;-82
2024/01/21 10:04:58;;;;;;;34.60;14.15;;;;;;;-2.49;100.00;101025.72;12202077;19;20066;-83
2024/01/21 10:09:14;;;;;;;43.35;15.07;;;;;;;-2.48;100.00;101047.16;12221908;19;20014;-83
2024/01/21 10:13:16;;;;;;;37.97;15.93;;;;;;;-2.36;100.00;101037.97;12203031;19;20006;-83
2024/01/21 10:17:25;;;;;;;41.20;15.68;;;;;;;-2.19;100.00;101057.25;12254478;19;20009;-80
2024/01/21 10:21:27;;;;;;;38.38;14.95;;;;;;;-1.99;100.00;101048.22;12244411;19;20018;-84
2024/01/21 10:25:29;;;;;;;42.63;15.97;;;;;;;-1.83;100.00;101050.38;12204181;19;20091;-80
2024/01/21 10:29:32;;;;;;;44.53;15.48;;;;;;;-1.72;100.00;101041.28;12230746;19;20010;-83
2024/01/21 10:33:34;;;;;;;42.83;17.30;;;;;;;-1.50;100.00;101042.88;12231769;19;20013;-80
2024/01/21 10:37:39;;;;;;;38.42;15.80;;;;;;;-1.35;100.00;101030.63;12206391;19;19998;-82
2024/01/21 10:41:42;;;;;;;40.80;16.25;;;;;;;-1.32;100.00;101038.44;12226257;19;20009;-82
2024/01/21 10:45:46;;;;;;;40.67;17.95;;;;;;;-1.33;100.00;101025.09;12213676;19;19999;-81
2024/01/21 10:49:49;;;;;;;41.15;17.98;;;;;;;-1.22;100.00;101022.22;12200192;19;20025;-83
2024/01/21 10:53:53;;;;;;;35.67;15.55;;;;;;;-0.93;100.00;101006.78;12224090;19;20086;-82
2024/01/21 10:57:58;;;;;;;39.75;16.35;;;;;;;-0.51;100.00;100987.41;12226832;19;20022;-82
2024/01/21 11:02:01;;;;;;;39.47;15.48;;;;;;;-0.45;100.00;100964.31;12201749;19;20010;-82
2024/01/21 11:06:07;;;;;;;34.30;16.48;;;;;;;-0.36;100.00;100930.06;12221924;19;20023;-83
2024/01/21 11:10:10;;;;;;;43.95;16.85;;;;;;;-0.32;100.00;100961.25;12198990;19;20027;-82
2024/01/21 11:14:33;;;;;;;35.30;16.77;;;;;;;-0.31;100.00;100927.75;12213283;19;20593;-78
2024/01/21 11:18:35;;;;;;;44.50;16.63;;;;;;;-0.33;100.00;100895.41;12213427;19;20011;-79
2024/01/21 11:22:37;;;;;;;39.33;14.98;;;;;;;-0.39;100.00;100887.88;12189533;19;20011;-81
2024/01/21 11:26:42;;;;;;;33.67;16.05;;;;;;;-0.16;100.00;100861.19;12219401;19;20025;-82
2024/01/21 11:30:46;;;;;;;41.58;16.30;;;;;;;0.02;100.00;100841.38;12230199;19;20007;-80
2024/01/21 11:34:48;;;;;;;37.97;15.23;;;;;;;0.35;100.00;100862.31;12199079;19;20506;-83
2024/01/21 11:38:50;;;;;;;42.05;15.82;;;;;;;0.63;100.00;100875.75;12216816;19;20010;-83
2024/01/21 11:42:53;;;;;;;37.83;15.48;;;;;;;0.90;100.00;100866.59;12215476;19;20525;-81
2024/01/21 11:46:57;;;;;;;34.80;16.27;;;;;;;1.07;100.00;100852.09;12184736;19;20017;-83
2024/01/21 11:51:00;;;;;;;31.48;16.00;;;;;;;1.19;100.00;100884.34;12211599;19;20009;-81
2024/01/21 11:55:02;;;;;;;28.83;12.07;;;;;;;1.10;100.00;100872.59;12212346;19;20025;-82
2024/01/21 11:59:09;;;;;;;35.85;13.63;;;;;;;1.09;100.00;100870.91;12187298;19;20018;-80
2024/01/21 12:03:12;;;;;;;25.75;12.60;;;;;;;1.52;100.00;100869.06;12215084;19;20020;-82
2024/01/21 12:07:15;;;;;;;23.52;10.10;;;;;;;2.13;100.00;100883.28;12213083;19;20362;-81
2024/01/21 12:11:17;;;;;;;29.55;14.35;;;;;;;2.38;100.00;100881.41;12195246;19;20023;-83
2024/01/21 12:15:20;;;;;;;25.90;13.23;;;;;;;2.99;100.00;100862.78;12215470;19;20002;-84
2024/01/21 12:19:24;;;;;;;32.55;14.25;;;;;;;3.60;100.00;100851.13;12187901;19;20006;-82
2024/01/21 12:23:26;;;;;;;37.75;15.85;;;;;;;3.66;96.37;100855.00;12210836;19;20021;-81
2024/01/21 12:27:29;;;;;;;;;;;;;;;3.62;95.08;100859.94;12210559;19;20002;-80
2024/01/21 12:31:41;;;;;;;32.38;14.50;;;;;;;3.77;93.63;100857.28;12190560;19;19911;-83
2024/01/21 12:35:43;;;;;;;33.58;14.73;;;;;;;3.97;93.73;100862.28;12206900;19;20034;-84
2024/01/21 12:39:46;;;;;;;22.92;12.63;;;;;;;4.05;90.91;100860.38;12211917;19;20031;-83
2024/01/21 12:43:52;;;;;;;28.52;12.70;;;;;;;4.19;91.47;100855.13;12203724;19;20003;-84
2024/01/21 12:47:55;;;;;;;25.35;11.52;;;;;;;4.14;89.08;100841.22;12224565;19;20029;-81
2024/01/21 12:51:57;;;;;;;27.80;12.95;;;;;;;4.01;87.45;100834.47;12214032;19;20344;-82
2024/01/21 12:56:01;;;;;;;26.27;12.60;;;;;;;4.13;87.71;100818.53;12191043;19;20011;-81
2024/01/21 13:00:04;;;;;;;28.73;12.60;;;;;;;4.28;85.94;100822.16;12201742;19;20018;-82
2024/01/21 13:04:06;;;;;;;;;;;;;;;4.30;85.88;100832.88;12212770;19;20006;-83
2024/01/21 13:08:11;;;;;;;23.03;12.00;;;;;;;4.32;86.51;100839.00;12187707;19;19911;-80
2024/01/21 13:12:13;;;;;;;26.05;11.75;;;;;;;4.06;83.49;100844.84;12215749;19;20006;-80
2024/01/21 13:16:16;;;;;;;27.52;12.90;;;;;;;3.88;84.73;100835.06;12210757;19;20010;-81
2024/01/21 13:20:18;;;;;;;27.02;12.43;;;;;;;3.75;84.74;100836.69;12228811;19;20041;-82
2024/01/21 13:24:21;;;;;;;25.67;12.67;;;;;;;3.81;85.34;100827.81;12231829;19;20006;-81
2024/01/21 13:32:27;;;;;;;24.83;11.77;;;;;;;3.80;83.15;100809.75;12221691;19;20834;-82
2024/01/21 13:36:34;;;;;;;27.85;11.60;;;;;;;3.60;83.30;100804.78;12226306;19;20010;-81
2024/01/21 13:40:36;;;;;;;24.02;11.85;;;;;;;3.40;84.93;100803.53;12210496;19;20090;-81
2024/01/21 13:44:38;;;;;;;25.27;10.98;;;;;;;3.24;85.97;100811.78;12225808;19;20010;-81
2024/01/21 13:48:39;;;;;;;25.15;11.23;;;;;;;3.12;86.40;100801.31;12220692;19;20017;-81
2024/01/21 13:52:42;;;;;;;22.60;10.83;;;;;;;3.12;87.61;100790.41;12210837;19;20013;-82
2024/01/21 13:56:46;;;;;;;20.73;9.32;;;;;;;3.03;87.22;100786.00;12234580;19;20049;-80
2024/01/21 14:00:48;;;;;;;28.27;12.68;;;;;;;3.19;88.06;100777.75;12237928;19;20010;-81
2024/01/21 14:04:50;;;;;;;20.17;9.77;;;;;;;3.16;88.04;100777.28;12205773;19;20038;-82
2024/01/21 14:08:52;;;;;;;20.43;10.23;;;;;;;3.18;88.87;100778.81;12226602;19;20006;-81
2024/01/21 14:12:56;;;;;;;19.70;10.15;;;;;;;3.23;89.87;100771.97;12225778;19;20040;-81
2024/01/21 14:17:02;;;;;;;23.67;9.45;;;;;;;3.28;89.78;100780.44;12197292;19;20014;-80
2024/01/21 14:21:04;;;;;;;23.73;9.38;;;;;;;3.37;89.64;100784.81;12216721;19;20060;-79
2024/01/21 14:25:30;;;;;;;13.13;6.53;;;;;;;3.45;89.21;100776.59;12228606;19;20048;-79
2024/01/21 14:29:36;;;;;;;19.70;8.85;;;;;;;3.59;89.51;100780.41;12214390;19;20014;-80
2024/01/21 14:33:39;;;;;;;17.17;8.85;;;;;;;3.72;88.91;100777.09;12230973;19;20018;-81
2024/01/21 14:37:41;;;;;;;18.35;8.80;;;;;;;3.77;87.88;100788.28;12200990;19;20465;-80
2024/01/21 14:41:43;;;;;;;19.53;9.27;;;;;;;3.92;87.74;100796.53;12222720;19;20010;-80
2024/01/21 14:45:44;;;;;;;16.60;8.20;;;;;;;4.02;86.82;100780.78;12224159;19;20110;-79
2024/01/21 14:49:46;;;;;;;18.97;8.87;;;;;;;4.10;86.36;100786.16;12201727;19;20002;-81
2024/01/21 14:53:48;;;;;;;11.33;5.60;;;;;;;4.20;86.83;100791.38;12228140;19;20046;-80
2024/01/21 14:57:51;;;;;;;17.98;9.15;;;;;;;4.13;85.64;100798.59;12223857;19;20010;-81
2024/01/21 15:02:32;;;;;;;20.40;8.55;;;;;;;4.08;85.76;100804.59;12206921;19;20035;-80
2024/01/21 15:06:53;;;;;;;18.10;8.75;;;;;;;3.99;86.26;100798.38;12230891;19;20061;-80
2024/01/21 15:10:58;;;;;;;19.70;9.43;;;;;;;3.92;87.14;100800.09;12210985;19;20013;-79
2024/01/21 15:15:19;;;;;;;21.63;9.25;;;;;;;3.83;88.00;100812.09;12219859;19;20002;-78
2024/01/21 15:19:21;;;;;;;18.00;10.60;;;;;;;3.76;88.67;100811.16;12201907;19;20116;-79
2024/01/21 15:23:24;;;;;;;22.58;9.18;;;;;;;3.73;88.89;100819.69;12226115;19;20007;-79
2024/01/21 15:27:27;;;;;;;20.58;9.73;;;;;;;3.67;89.66;100823.97;12223569;19;20398;-79
2024/01/21 15:31:30;;;;;;;18.75;8.20;;;;;;;3.59;90.10;100811.25;12202867;19;20018;-79
2024/01/21 15:35:32;;;;;;;20.88;10.20;;;;;;;3.55;90.88;100806.34;12224763;19;20099;-81
2024/01/21 15:39:33;;;;;;;19.90;9.88;;;;;;;3.44;91.37;100815.75;12228489;19;20015;-81
2024/01/21 15:43:36;;;;;;;17.52;8.70;;;;;;;3.37;91.82;100822.97;12215184;19;20022;-82
2024/01/21 15:47:39;;;;;;;22.02;9.52;;;;;;;3.42;92.20;100821.41;12232876;19;20011;-83
2024/01/21 15:51:41;;;;;;;22.60;8.25;;;;;;;3.38;92.42;100808.31;12223510;19;20045;-84
2024/01/21 15:55:47;;;;;;;19.05;7.45;;;;;;;3.37;92.97;100807.47;12203423;19;20006;-84
2024/01/21 15:59:49;;;;;;;17.37;6.93;;;;;;;3.36;93.23;100807.63;12219399;19;20010;-82
2024/01/21 16:03:52;;;;;;;18.25;7.80;;;;;;;3.37;93.08;100814.78;12223753;19;20586;-83
2024/01/21 16:07:55;;;;;;;15.57;7.45;;;;;;;3.39;93.09;100826.34;12198229;19;20003;-83
2024/01/21 16:11:57;;;;;;;15.02;6.97;;;;;;;3.40;93.24;100828.91;12215649;19;20006;-81
2024/01/21 16:15:59;;;;;;;16.90;7.73;;;;;;;3.45;93.15;100827.50;12214693;19;20386;-81
2024/01/21 16:20:01;;;;;;;12.32;6.90;;;;;;;3.48;93.20;100825.28;12197012;19;20372;-81
2024/01/21 16:24:03;;;;;;;13.10;5.43;;;;;;;3.52;92.90;100833.97;12218410;19;20026;-81
2024/01/21 16:28:07;;;;;;;11.85;6.28;;;;;;;3.60;93.01;100825.75;12215437;19;20013;-81
2024/01/21 16:32:09;;;;;;;12.47;6.90;;;;;;;3.67;93.27;100831.31;12194289;19;19998;-80
2024/01/21 16:36:12;;;;;;;19.52;6.68;;;;;;;3.70;93.33;100831.81;12209360;19;20030;-80
2024/01/21 16:40:14;;;;;;;14.73;6.65;;;;;;;3.72;92.87;100831.59;12217191;19;20021;-77
2024/01/21 16:44:17;;;;;;;13.13;7.33;;;;;;;3.82;93.22;100838.53;12200503;19;20632;-80
2024/01/21 16:48:23;;;;;;;13.88;5.78;;;;;;;3.81;93.03;100833.28;12241930;19;20022;-79
2024/01/21 16:52:32;;;;;;;14.45;6.28;;;;;;;3.87;92.27;100830.66;12210188;19;20013;-78
2024/01/21 16:56:35;;;;;;;14.35;6.22;;;;;;;3.91;91.57;100819.41;12245005;19;20120;-78
2024/01/21 17:00:42;;;;;;;10.13;4.55;;;;;;;3.95;91.66;100799.75;12251816;19;20011;-80
2024/01/21 17:04:46;;;;;;;14.85;6.18;;;;;;;4.05;90.61;100805.81;12223106;19;20042;-79
2024/01/21 17:08:53;;;;;;;8.52;5.07;;;;;;;4.18;91.14;100807.06;12222462;19;20037;-79
2024/01/21 17:12:56;;;;;;;9.63;4.47;;;;;;;4.23;90.22;100804.66;12205602;19;20338;-84
2024/01/21 17:16:59;;;;;;;14.20;5.13;;;;;;;4.35;89.95;100800.44;12191039;19;20022;-81
2024/01/21 17:21:04;;;;;;;14.68;5.20;;;;;;;4.38;89.48;100791.88;12207202;19;20038;-82
2024/01/21 17:25:06;;;;;;;11.65;4.60;;;;;;;4.50;89.69;100781.34;12219935;19;19999;-82
2024/01/21 17:29:15;;;;;;;11.00;5.22;;;;;;;4.61;90.04;100788.22;12191084;19;20015;-82
2024/01/21 17:33:18;;;;;;;12.88;5.03;;;;;;;4.64;91.35;100783.25;12220644;19;20014;-82
2024/01/21 17:37:20;;;;;;;10.40;4.83;;;;;;;4.68;92.03;100779.09;12194085;19;20034;-82
2024/01/21 17:41:23;;;;;;;18.40;4.93;;;;;;;4.73;92.60;100781.25;12214396;19;20255;-81
2024/01/21 17:45:27;;;;;;;11.27;4.50;;;;;;;4.78;92.70;100763.28;12211129;19;20054;-82
2024/01/21 17:49:30;;;;;;;13.27;5.07;;;;;;;4.84;91.78;100766.28;12189022;19;20010;-81
2024/01/21 17:53:33;;;;;;;9.48;4.95;;;;;;;4.85;91.25;100765.25;12212573;19;20027;-81
2024/01/21 17:57:35;;;;;;;10.18;4.40;;;;;;;4.89;90.82;100772.88;12210473;19;20731;-81
2024/01/21 18:01:37;;;;;;;13.82;5.30;;;;;;;4.91;90.26;100759.06;12192682;19;20049;-81
2024/01/21 18:05:41;;;;;;;9.02;5.07;;;;;;;4.89;89.23;100742.84;12212038;19;20061;-80
2024/01/21 18:09:43;;;;;;;19.13;5.60;;;;;;;4.92;87.77;100741.63;12221003;19;20119;-80
2024/01/21 18:13:45;;;;;;;10.47;5.33;;;;;;;4.84;85.96;100742.56;12204413;19;20007;-81
2024/01/21 18:17:47;;;;;;;11.13;5.87;;;;;;;4.82;84.45;100758.31;12219949;19;20002;-80
2024/01/21 18:21:50;;;;;;;10.85;5.25;;;;;;;4.83;85.19;100742.78;12222691;19;20086;-82
2024/01/21 18:25:52;;;;;;;11.55;5.72;;;;;;;4.83;85.42;100748.22;12197580;19;20548;-83
2024/01/21 18:29:54;;;;;;;14.85;5.95;;;;;;;4.79;87.37;100745.03;12221981;19;20015;-83
2024/01/21 18:33:58;;;;;;;10.52;5.15;;;;;;;4.82;89.14;100741.94;12220936;19;20034;-82
2024/01/21 18:38:00;;;;;;;8.30;4.33;;;;;;;4.86;89.39;100732.31;12193070;19;20026;-81
2024/01/21 18:42:03;;;;;;;10.57;6.13;;;;;;;4.92;88.82;100745.19;12213902;19;20014;-81
2024/01/21 18:46:05;;;;;;;12.07;5.35;;;;;;;4.91;87.40;100740.78;12214762;19;20010;-81
2024/01/21 18:50:08;;;;;;;9.40;4.80;;;;;;;4.97;86.45;100741.91;12185499;19;20010;-82
2024/01/21 18:54:10;;;;;;;15.80;5.57;;;;;;;5.05;86.17;100738.22;12207197;19;20059;-83